sensor_id;sensor_type;location;lat;lon;timestamp;P1;durP1;ratioP1;P2;durP2;ratioP2
22752;SDS011;11543;43.144;24.684;2022-12-18T00:00:47;13.25;;;8.07;;
22752;SDS011;11543;43.144;24.684;2022-12-18T00:03:14;13.15;;;7.95;;
22752;SDS011;11543;43.144;24.684;2022-12-18T00:06:01;13.70;;;8.45;;
22752;SDS011;11543;43.144;24.684;2022-12-18T00:08:25;13.23;;;8.23;;
22752;SDS011;11543;43.144;24.684;2022-12-18T00:10:50;15.27;;;8.55;;
22752;SDS011;11543;43.144;24.684;2022-12-18T00:13:16;13.25;;;8.45;;
22752;SDS011;11543;43.144;24.684;2022-12-18T00:15:42;13.73;;;8.57;;
22752;SDS011;11543;43.144;24.684;2022-12-18T00:18:07;11.80;;;7.88;;
22752;SDS011;11543;43.144;24.684;2022-12-18T00:20:36;13.90;;;8.27;;
22752;SDS011;11543;43.144;24.684;2022-12-18T00:23:03;14.40;;;8.52;;
22752;SDS011;11543;43.144;24.684;2022-12-18T00:25:29;13.88;;;8.80;;
22752;SDS011;11543;43.144;24.684;2022-12-18T00:27:57;14.27;;;8.90;;
22752;SDS011;11543;43.144;24.684;2022-12-18T00:30:22;13.88;;;8.75;;
22752;SDS011;11543;43.144;24.684;2022-12-18T00:32:47;12.55;;;8.68;;
22752;SDS011;11543;43.144;24.684;2022-12-18T00:35:13;14.57;;;8.80;;
22752;SDS011;11543;43.144;24.684;2022-12-18T00:37:39;13.80;;;7.93;;
22752;SDS011;11543;43.144;24.684;2022-12-18T00:40:04;13.55;;;8.73;;
22752;SDS011;11543;43.144;24.684;2022-12-18T00:42:30;15.70;;;9.27;;
22752;SDS011;11543;43.144;24.684;2022-12-18T00:45:14;15.55;;;9.52;;
22752;SDS011;11543;43.144;24.684;2022-12-18T00:47:40;15.80;;;9.43;;
22752;SDS011;11543;43.144;24.684;2022-12-18T00:50:05;15.88;;;9.48;;
22752;SDS011;11543;43.144;24.684;2022-12-18T00:52:31;16.60;;;10.25;;
22752;SDS011;11543;43.144;24.684;2022-12-18T00:54:57;15.75;;;9.52;;
22752;SDS011;11543;43.144;24.684;2022-12-18T00:57:22;17.48;;;9.85;;
22752;SDS011;11543;43.144;24.684;2022-12-18T00:59:48;15.02;;;9.43;;
22752;SDS011;11543;43.144;24.684;2022-12-18T01:02:13;13.93;;;9.13;;
22752;SDS011;11543;43.144;24.684;2022-12-18T01:04:38;15.73;;;9.98;;
22752;SDS011;11543;43.144;24.684;2022-12-18T01:07:04;14.10;;;8.60;;
22752;SDS011;11543;43.144;24.684;2022-12-18T01:09:29;13.02;;;8.27;;
22752;SDS011;11543;43.144;24.684;2022-12-18T01:11:55;16.70;;;9.63;;
22752;SDS011;11543;43.144;24.684;2022-12-18T01:14:20;13.40;;;8.43;;
22752;SDS011;11543;43.144;24.684;2022-12-18T01:16:46;13.20;;;8.65;;
22752;SDS011;11543;43.144;24.684;2022-12-18T01:19:11;15.52;;;9.85;;
22752;SDS011;11543;43.144;24.684;2022-12-18T01:21:36;17.10;;;9.80;;
22752;SDS011;11543;43.144;24.684;2022-12-18T01:24:02;14.85;;;9.55;;
22752;SDS011;11543;43.144;24.684;2022-12-18T01:26:28;16.55;;;9.80;;
22752;SDS011;11543;43.144;24.684;2022-12-18T01:28:55;15.73;;;9.98;;
22752;SDS011;11543;43.144;24.684;2022-12-18T01:31:28;18.27;;;11.10;;
22752;SDS011;11543;43.144;24.684;2022-12-18T01:33:56;17.27;;;10.55;;
22752;SDS011;11543;43.144;24.684;2022-12-18T01:36:28;17.45;;;10.77;;
22752;SDS011;11543;43.144;24.684;2022-12-18T01:38:59;19.05;;;10.63;;
22752;SDS011;11543;43.144;24.684;2022-12-18T01:41:28;18.50;;;10.48;;
22752;SDS011;11543;43.144;24.684;2022-12-18T01:47:18;18.83;;;11.50;;
22752;SDS011;11543;43.144;24.684;2022-12-18T01:49:47;18.73;;;11.15;;
22752;SDS011;11543;43.144;24.684;2022-12-18T01:52:13;20.35;;;11.65;;
22752;SDS011;11543;43.144;24.684;2022-12-18T01:54:38;20.20;;;11.32;;
22752;SDS011;11543;43.144;24.684;2022-12-18T01:57:04;21.50;;;11.40;;
22752;SDS011;11543;43.144;24.684;2022-12-18T01:59:29;19.50;;;11.60;;
22752;SDS011;11543;43.144;24.684;2022-12-18T02:01:57;19.95;;;11.52;;
22752;SDS011;11543;43.144;24.684;2022-12-18T02:04:26;18.98;;;10.85;;
22752;SDS011;11543;43.144;24.684;2022-12-18T02:07:37;18.08;;;11.48;;
22752;SDS011;11543;43.144;24.684;2022-12-18T02:10:34;18.75;;;11.40;;
22752;SDS011;11543;43.144;24.684;2022-12-18T02:13:12;19.98;;;11.43;;
22752;SDS011;11543;43.144;24.684;2022-12-18T02:18:56;19.67;;;11.43;;
22752;SDS011;11543;43.144;24.684;2022-12-18T02:21:31;19.17;;;11.40;;
22752;SDS011;11543;43.144;24.684;2022-12-18T02:26:58;19.38;;;11.48;;
22752;SDS011;11543;43.144;24.684;2022-12-18T02:32:25;22.27;;;12.23;;
22752;SDS011;11543;43.144;24.684;2022-12-18T02:34:55;18.80;;;11.57;;
22752;SDS011;11543;43.144;24.684;2022-12-18T02:37:22;18.38;;;11.25;;
22752;SDS011;11543;43.144;24.684;2022-12-18T02:39:51;20.88;;;12.20;;
22752;SDS011;11543;43.144;24.684;2022-12-18T02:42:20;20.50;;;11.55;;
22752;SDS011;11543;43.144;24.684;2022-12-18T02:44:47;21.65;;;12.73;;
22752;SDS011;11543;43.144;24.684;2022-12-18T02:47:15;19.27;;;12.02;;
22752;SDS011;11543;43.144;24.684;2022-12-18T02:49:57;22.17;;;12.65;;
22752;SDS011;11543;43.144;24.684;2022-12-18T02:57:52;22.20;;;12.55;;
22752;SDS011;11543;43.144;24.684;2022-12-18T03:03:06;19.95;;;12.00;;
22752;SDS011;11543;43.144;24.684;2022-12-18T03:08:31;24.00;;;13.80;;
22752;SDS011;11543;43.144;24.684;2022-12-18T03:11:04;18.65;;;12.07;;
22752;SDS011;11543;43.144;24.684;2022-12-18T03:13:33;20.02;;;12.65;;
22752;SDS011;11543;43.144;24.684;2022-12-18T03:16:02;20.63;;;12.38;;
22752;SDS011;11543;43.144;24.684;2022-12-18T03:18:36;19.52;;;12.48;;
22752;SDS011;11543;43.144;24.684;2022-12-18T03:21:15;21.92;;;13.00;;
22752;SDS011;11543;43.144;24.684;2022-12-18T03:23:47;19.60;;;12.55;;
22752;SDS011;11543;43.144;24.684;2022-12-18T03:26:17;17.63;;;11.07;;
22752;SDS011;11543;43.144;24.684;2022-12-18T03:28:52;19.77;;;12.15;;
22752;SDS011;11543;43.144;24.684;2022-12-18T03:31:23;20.40;;;12.27;;
22752;SDS011;11543;43.144;24.684;2022-12-18T03:33:55;20.52;;;12.50;;
22752;SDS011;11543;43.144;24.684;2022-12-18T03:36:24;19.92;;;12.45;;
22752;SDS011;11543;43.144;24.684;2022-12-18T03:38:50;17.50;;;11.65;;
22752;SDS011;11543;43.144;24.684;2022-12-18T03:41:32;19.73;;;12.60;;
22752;SDS011;11543;43.144;24.684;2022-12-18T03:44:09;20.70;;;13.02;;
22752;SDS011;11543;43.144;24.684;2022-12-18T03:52:38;22.10;;;13.88;;
22752;SDS011;11543;43.144;24.684;2022-12-18T03:55:11;20.50;;;12.93;;
22752;SDS011;11543;43.144;24.684;2022-12-18T03:57:37;20.00;;;13.70;;
22752;SDS011;11543;43.144;24.684;2022-12-18T04:00:08;19.77;;;13.77;;
22752;SDS011;11543;43.144;24.684;2022-12-18T04:02:37;22.25;;;14.00;;
22752;SDS011;11543;43.144;24.684;2022-12-18T04:05:06;23.10;;;14.50;;
22752;SDS011;11543;43.144;24.684;2022-12-18T04:07:34;23.67;;;14.65;;
22752;SDS011;11543;43.144;24.684;2022-12-18T04:10:00;23.98;;;14.13;;
22752;SDS011;11543;43.144;24.684;2022-12-18T04:12:28;21.10;;;12.95;;
22752;SDS011;11543;43.144;24.684;2022-12-18T04:14:54;20.45;;;13.25;;
22752;SDS011;11543;43.144;24.684;2022-12-18T04:17:20;22.95;;;14.02;;
22752;SDS011;11543;43.144;24.684;2022-12-18T04:19:46;21.08;;;13.48;;
22752;SDS011;11543;43.144;24.684;2022-12-18T04:22:12;22.10;;;13.68;;
22752;SDS011;11543;43.144;24.684;2022-12-18T04:24:37;23.63;;;13.45;;
22752;SDS011;11543;43.144;24.684;2022-12-18T04:27:03;22.80;;;13.63;;
22752;SDS011;11543;43.144;24.684;2022-12-18T04:29:28;21.63;;;14.05;;
22752;SDS011;11543;43.144;24.684;2022-12-18T04:31:54;19.25;;;12.75;;
22752;SDS011;11543;43.144;24.684;2022-12-18T04:34:19;20.50;;;13.65;;
22752;SDS011;11543;43.144;24.684;2022-12-18T04:36:46;25.38;;;16.17;;
22752;SDS011;11543;43.144;24.684;2022-12-18T04:39:11;24.35;;;14.57;;
22752;SDS011;11543;43.144;24.684;2022-12-18T04:41:37;30.00;;;19.05;;
22752;SDS011;11543;43.144;24.684;2022-12-18T04:44:02;24.08;;;15.00;;
22752;SDS011;11543;43.144;24.684;2022-12-18T04:46:28;22.38;;;14.57;;
22752;SDS011;11543;43.144;24.684;2022-12-18T04:48:54;28.05;;;16.40;;
22752;SDS011;11543;43.144;24.684;2022-12-18T04:51:19;28.92;;;16.75;;
22752;SDS011;11543;43.144;24.684;2022-12-18T04:53:45;23.35;;;14.77;;
22752;SDS011;11543;43.144;24.684;2022-12-18T04:56:11;24.55;;;13.52;;
22752;SDS011;11543;43.144;24.684;2022-12-18T04:58:39;25.02;;;14.38;;
22752;SDS011;11543;43.144;24.684;2022-12-18T05:01:06;20.23;;;13.23;;
22752;SDS011;11543;43.144;24.684;2022-12-18T05:03:32;22.17;;;14.25;;
22752;SDS011;11543;43.144;24.684;2022-12-18T05:05:59;22.38;;;14.70;;
22752;SDS011;11543;43.144;24.684;2022-12-18T05:08:25;22.92;;;14.95;;
22752;SDS011;11543;43.144;24.684;2022-12-18T05:11:04;22.38;;;14.70;;
22752;SDS011;11543;43.144;24.684;2022-12-18T05:13:29;26.98;;;15.00;;
22752;SDS011;11543;43.144;24.684;2022-12-18T05:15:55;25.17;;;15.82;;
22752;SDS011;11543;43.144;24.684;2022-12-18T05:18:22;24.42;;;14.63;;
22752;SDS011;11543;43.144;24.684;2022-12-18T05:20:48;25.42;;;15.60;;
22752;SDS011;11543;43.144;24.684;2022-12-18T05:23:15;25.08;;;15.40;;
22752;SDS011;11543;43.144;24.684;2022-12-18T05:25:40;25.98;;;16.42;;
22752;SDS011;11543;43.144;24.684;2022-12-18T05:28:06;25.98;;;15.65;;
22752;SDS011;11543;43.144;24.684;2022-12-18T05:30:31;26.25;;;16.10;;
22752;SDS011;11543;43.144;24.684;2022-12-18T05:32:57;26.77;;;15.20;;
22752;SDS011;11543;43.144;24.684;2022-12-18T05:35:23;25.27;;;15.57;;
22752;SDS011;11543;43.144;24.684;2022-12-18T05:37:49;24.30;;;15.02;;
22752;SDS011;11543;43.144;24.684;2022-12-18T05:40:14;26.02;;;15.15;;
22752;SDS011;11543;43.144;24.684;2022-12-18T05:42:40;26.33;;;15.45;;
22752;SDS011;11543;43.144;24.684;2022-12-18T05:45:05;24.70;;;15.70;;
22752;SDS011;11543;43.144;24.684;2022-12-18T05:47:31;26.65;;;15.60;;
22752;SDS011;11543;43.144;24.684;2022-12-18T05:49:56;25.95;;;15.70;;
22752;SDS011;11543;43.144;24.684;2022-12-18T05:52:22;24.35;;;15.13;;
22752;SDS011;11543;43.144;24.684;2022-12-18T05:54:48;25.85;;;15.60;;
22752;SDS011;11543;43.144;24.684;2022-12-18T05:57:13;25.35;;;14.40;;
22752;SDS011;11543;43.144;24.684;2022-12-18T05:59:39;22.88;;;14.48;;
22752;SDS011;11543;43.144;24.684;2022-12-18T06:02:04;21.95;;;15.00;;
22752;SDS011;11543;43.144;24.684;2022-12-18T06:04:29;27.58;;;16.77;;
22752;SDS011;11543;43.144;24.684;2022-12-18T06:06:55;29.27;;;18.50;;
22752;SDS011;11543;43.144;24.684;2022-12-18T06:09:21;26.77;;;17.23;;
22752;SDS011;11543;43.144;24.684;2022-12-18T06:11:46;28.60;;;17.48;;
22752;SDS011;11543;43.144;24.684;2022-12-18T06:14:12;28.63;;;17.13;;
22752;SDS011;11543;43.144;24.684;2022-12-18T06:16:37;26.20;;;15.60;;
22752;SDS011;11543;43.144;24.684;2022-12-18T06:19:04;23.92;;;15.07;;
22752;SDS011;11543;43.144;24.684;2022-12-18T06:21:30;36.42;;;27.25;;
22752;SDS011;11543;43.144;24.684;2022-12-18T06:23:57;38.85;;;29.00;;
22752;SDS011;11543;43.144;24.684;2022-12-18T06:26:22;32.50;;;23.30;;
22752;SDS011;11543;43.144;24.684;2022-12-18T06:28:48;35.42;;;21.63;;
22752;SDS011;11543;43.144;24.684;2022-12-18T06:31:14;36.17;;;22.10;;
22752;SDS011;11543;43.144;24.684;2022-12-18T06:33:39;44.00;;;22.20;;
22752;SDS011;11543;43.144;24.684;2022-12-18T06:36:06;34.13;;;19.27;;
22752;SDS011;11543;43.144;24.684;2022-12-18T06:41:07;38.88;;;26.05;;
22752;SDS011;11543;43.144;24.684;2022-12-18T06:43:36;38.88;;;25.15;;
22752;SDS011;11543;43.144;24.684;2022-12-18T06:46:03;29.08;;;20.10;;
22752;SDS011;11543;43.144;24.684;2022-12-18T06:48:29;32.80;;;21.70;;
22752;SDS011;11543;43.144;24.684;2022-12-18T06:50:55;35.38;;;22.98;;
22752;SDS011;11543;43.144;24.684;2022-12-18T06:53:21;27.48;;;18.67;;
22752;SDS011;11543;43.144;24.684;2022-12-18T06:55:47;23.15;;;13.10;;
22752;SDS011;11543;43.144;24.684;2022-12-18T06:58:12;25.77;;;15.63;;
22752;SDS011;11543;43.144;24.684;2022-12-18T07:00:38;25.90;;;15.45;;
22752;SDS011;11543;43.144;24.684;2022-12-18T07:03:03;23.60;;;15.00;;
22752;SDS011;11543;43.144;24.684;2022-12-18T07:05:29;24.02;;;15.15;;
22752;SDS011;11543;43.144;24.684;2022-12-18T07:07:54;24.80;;;15.90;;
22752;SDS011;11543;43.144;24.684;2022-12-18T07:10:20;24.88;;;15.90;;
22752;SDS011;11543;43.144;24.684;2022-12-18T07:12:45;23.38;;;15.88;;
22752;SDS011;11543;43.144;24.684;2022-12-18T07:15:11;24.77;;;15.68;;
22752;SDS011;11543;43.144;24.684;2022-12-18T07:17:36;21.42;;;12.35;;
22752;SDS011;11543;43.144;24.684;2022-12-18T07:20:02;17.40;;;10.82;;
22752;SDS011;11543;43.144;24.684;2022-12-18T07:22:27;20.25;;;13.35;;
22752;SDS011;11543;43.144;24.684;2022-12-18T07:24:53;20.70;;;14.30;;
22752;SDS011;11543;43.144;24.684;2022-12-18T07:27:18;18.35;;;11.68;;
22752;SDS011;11543;43.144;24.684;2022-12-18T07:29:44;26.20;;;15.27;;
22752;SDS011;11543;43.144;24.684;2022-12-18T07:32:09;23.73;;;17.30;;
22752;SDS011;11543;43.144;24.684;2022-12-18T07:34:34;16.25;;;10.70;;
22752;SDS011;11543;43.144;24.684;2022-12-18T07:37:00;18.42;;;11.23;;
22752;SDS011;11543;43.144;24.684;2022-12-18T07:39:25;27.58;;;14.63;;
22752;SDS011;11543;43.144;24.684;2022-12-18T07:41:51;14.07;;;8.90;;
22752;SDS011;11543;43.144;24.684;2022-12-18T07:44:35;16.75;;;10.50;;
22752;SDS011;11543;43.144;24.684;2022-12-18T07:47:01;19.55;;;10.88;;
22752;SDS011;11543;43.144;24.684;2022-12-18T07:49:27;17.85;;;12.05;;
22752;SDS011;11543;43.144;24.684;2022-12-18T07:51:53;19.67;;;10.45;;
22752;SDS011;11543;43.144;24.684;2022-12-18T07:54:21;10.48;;;6.50;;
22752;SDS011;11543;43.144;24.684;2022-12-18T07:56:47;10.38;;;6.30;;
22752;SDS011;11543;43.144;24.684;2022-12-18T07:59:12;11.18;;;6.63;;
22752;SDS011;11543;43.144;24.684;2022-12-18T08:01:37;10.07;;;5.90;;
22752;SDS011;11543;43.144;24.684;2022-12-18T08:04:03;9.50;;;6.05;;
22752;SDS011;11543;43.144;24.684;2022-12-18T08:06:28;9.10;;;5.97;;
22752;SDS011;11543;43.144;24.684;2022-12-18T08:08:54;9.95;;;6.07;;
22752;SDS011;11543;43.144;24.684;2022-12-18T08:11:21;10.07;;;5.93;;
22752;SDS011;11543;43.144;24.684;2022-12-18T08:13:47;8.85;;;5.47;;
22752;SDS011;11543;43.144;24.684;2022-12-18T08:16:12;10.48;;;5.65;;
22752;SDS011;11543;43.144;24.684;2022-12-18T08:18:38;7.45;;;5.07;;
22752;SDS011;11543;43.144;24.684;2022-12-18T08:21:10;7.65;;;5.20;;
22752;SDS011;11543;43.144;24.684;2022-12-18T08:23:59;9.00;;;5.30;;
22752;SDS011;11543;43.144;24.684;2022-12-18T08:26:26;7.97;;;4.63;;
22752;SDS011;11543;43.144;24.684;2022-12-18T08:28:54;6.50;;;4.45;;
22752;SDS011;11543;43.144;24.684;2022-12-18T08:31:20;7.28;;;4.40;;
22752;SDS011;11543;43.144;24.684;2022-12-18T08:33:50;8.52;;;4.80;;
22752;SDS011;11543;43.144;24.684;2022-12-18T08:36:17;8.20;;;4.85;;
22752;SDS011;11543;43.144;24.684;2022-12-18T08:38:44;7.18;;;4.45;;
22752;SDS011;11543;43.144;24.684;2022-12-18T08:41:10;8.35;;;4.70;;
22752;SDS011;11543;43.144;24.684;2022-12-18T08:43:37;8.18;;;4.93;;
22752;SDS011;11543;43.144;24.684;2022-12-18T08:46:22;9.32;;;4.85;;
22752;SDS011;11543;43.144;24.684;2022-12-18T08:48:53;8.60;;;5.20;;
22752;SDS011;11543;43.144;24.684;2022-12-18T08:51:22;7.55;;;4.68;;
22752;SDS011;11543;43.144;24.684;2022-12-18T08:53:47;7.32;;;4.88;;
22752;SDS011;11543;43.144;24.684;2022-12-18T08:56:13;8.90;;;5.35;;
22752;SDS011;11543;43.144;24.684;2022-12-18T08:58:39;8.93;;;4.65;;
22752;SDS011;11543;43.144;24.684;2022-12-18T09:01:06;7.63;;;4.72;;
22752;SDS011;11543;43.144;24.684;2022-12-18T09:03:36;7.35;;;4.43;;
22752;SDS011;11543;43.144;24.684;2022-12-18T09:06:02;10.23;;;5.53;;
22752;SDS011;11543;43.144;24.684;2022-12-18T09:08:28;8.13;;;4.97;;
22752;SDS011;11543;43.144;24.684;2022-12-18T09:10:54;9.15;;;4.88;;
22752;SDS011;11543;43.144;24.684;2022-12-18T09:13:20;10.48;;;4.90;;
22752;SDS011;11543;43.144;24.684;2022-12-18T09:15:46;8.50;;;4.97;;
22752;SDS011;11543;43.144;24.684;2022-12-18T09:18:15;8.02;;;5.30;;
22752;SDS011;11543;43.144;24.684;2022-12-18T09:20:41;8.98;;;5.00;;
22752;SDS011;11543;43.144;24.684;2022-12-18T09:23:07;8.90;;;5.47;;
22752;SDS011;11543;43.144;24.684;2022-12-18T09:25:34;7.50;;;5.00;;
22752;SDS011;11543;43.144;24.684;2022-12-18T09:28:04;9.05;;;5.30;;
22752;SDS011;11543;43.144;24.684;2022-12-18T09:30:37;8.63;;;5.15;;
22752;SDS011;11543;43.144;24.684;2022-12-18T09:33:03;8.80;;;5.70;;
22752;SDS011;11543;43.144;24.684;2022-12-18T09:35:29;9.38;;;5.50;;
22752;SDS011;11543;43.144;24.684;2022-12-18T09:37:54;9.38;;;5.63;;
22752;SDS011;11543;43.144;24.684;2022-12-18T09:40:21;8.50;;;5.22;;
22752;SDS011;11543;43.144;24.684;2022-12-18T09:42:57;8.65;;;5.38;;
22752;SDS011;11543;43.144;24.684;2022-12-18T09:45:25;8.88;;;5.75;;
22752;SDS011;11543;43.144;24.684;2022-12-18T09:47:52;8.77;;;5.43;;
22752;SDS011;11543;43.144;24.684;2022-12-18T09:50:29;8.27;;;5.30;;
22752;SDS011;11543;43.144;24.684;2022-12-18T09:52:55;8.90;;;5.22;;
22752;SDS011;11543;43.144;24.684;2022-12-18T09:55:32;8.70;;;5.15;;
22752;SDS011;11543;43.144;24.684;2022-12-18T10:00:51;8.60;;;5.47;;
22752;SDS011;11543;43.144;24.684;2022-12-18T10:03:17;8.57;;;5.28;;
22752;SDS011;11543;43.144;24.684;2022-12-18T10:14:36;7.22;;;4.63;;
22752;SDS011;11543;43.144;24.684;2022-12-18T10:19:47;7.53;;;4.80;;
22752;SDS011;11543;43.144;24.684;2022-12-18T10:25:29;7.70;;;4.43;;
22752;SDS011;11543;43.144;24.684;2022-12-18T10:28:20;7.45;;;4.38;;
22752;SDS011;11543;43.144;24.684;2022-12-18T10:30:46;7.95;;;4.55;;
22752;SDS011;11543;43.144;24.684;2022-12-18T10:33:13;7.05;;;4.70;;
22752;SDS011;11543;43.144;24.684;2022-12-18T10:35:42;8.15;;;4.75;;
22752;SDS011;11543;43.144;24.684;2022-12-18T10:48:35;9.02;;;5.20;;
22752;SDS011;11543;43.144;24.684;2022-12-18T10:51:04;7.47;;;4.93;;
22752;SDS011;11543;43.144;24.684;2022-12-18T10:53:33;8.30;;;5.30;;
22752;SDS011;11543;43.144;24.684;2022-12-18T10:56:02;11.95;;;4.90;;
22752;SDS011;11543;43.144;24.684;2022-12-18T10:58:34;9.38;;;4.90;;
22752;SDS011;11543;43.144;24.684;2022-12-18T11:04:15;9.25;;;5.50;;
22752;SDS011;11543;43.144;24.684;2022-12-18T11:06:16;8.13;;;4.95;;
22752;SDS011;11543;43.144;24.684;2022-12-18T11:08:44;8.70;;;5.13;;
22752;SDS011;11543;43.144;24.684;2022-12-18T11:11:22;8.23;;;5.18;;
22752;SDS011;11543;43.144;24.684;2022-12-18T11:14:05;8.35;;;5.35;;
22752;SDS011;11543;43.144;24.684;2022-12-18T11:16:42;6.93;;;4.43;;
22752;SDS011;11543;43.144;24.684;2022-12-18T11:21:49;8.48;;;5.38;;
22752;SDS011;11543;43.144;24.684;2022-12-18T11:26:52;8.73;;;5.53;;
22752;SDS011;11543;43.144;24.684;2022-12-18T11:29:19;9.32;;;5.53;;
22752;SDS011;11543;43.144;24.684;2022-12-18T11:31:49;11.02;;;5.80;;
22752;SDS011;11543;43.144;24.684;2022-12-18T11:36:57;10.15;;;5.97;;
22752;SDS011;11543;43.144;24.684;2022-12-18T11:42:05;10.20;;;5.90;;
22752;SDS011;11543;43.144;24.684;2022-12-18T11:44:57;10.82;;;5.80;;
22752;SDS011;11543;43.144;24.684;2022-12-18T11:47:41;9.63;;;5.57;;
22752;SDS011;11543;43.144;24.684;2022-12-18T11:52:41;9.48;;;5.13;;
22752;SDS011;11543;43.144;24.684;2022-12-18T11:55:11;10.30;;;6.15;;
22752;SDS011;11543;43.144;24.684;2022-12-18T11:58:03;8.30;;;5.80;;
22752;SDS011;11543;43.144;24.684;2022-12-18T12:01:34;11.13;;;5.70;;
22752;SDS011;11543;43.144;24.684;2022-12-18T12:14:51;9.98;;;6.00;;
22752;SDS011;11543;43.144;24.684;2022-12-18T12:17:42;9.05;;;5.60;;
22752;SDS011;11543;43.144;24.684;2022-12-18T12:23:15;9.55;;;6.00;;
22752;SDS011;11543;43.144;24.684;2022-12-18T12:26:35;9.80;;;5.63;;
22752;SDS011;11543;43.144;24.684;2022-12-18T12:31:37;9.73;;;6.07;;
22752;SDS011;11543;43.144;24.684;2022-12-18T12:40:14;10.35;;;6.07;;
22752;SDS011;11543;43.144;24.684;2022-12-18T12:42:47;10.75;;;6.05;;
22752;SDS011;11543;43.144;24.684;2022-12-18T12:45:58;9.02;;;5.30;;
22752;SDS011;11543;43.144;24.684;2022-12-18T12:48:44;9.95;;;5.88;;
22752;SDS011;11543;43.144;24.684;2022-12-18T12:51:19;10.20;;;6.25;;
22752;SDS011;11543;43.144;24.684;2022-12-18T12:53:49;9.13;;;5.82;;
22752;SDS011;11543;43.144;24.684;2022-12-18T12:56:16;11.13;;;6.30;;
22752;SDS011;11543;43.144;24.684;2022-12-18T13:09:20;12.60;;;6.97;;
22752;SDS011;11543;43.144;24.684;2022-12-18T13:11:46;10.32;;;6.32;;
22752;SDS011;11543;43.144;24.684;2022-12-18T13:14:35;11.38;;;6.47;;
22752;SDS011;11543;43.144;24.684;2022-12-18T13:17:16;13.38;;;7.10;;
22752;SDS011;11543;43.144;24.684;2022-12-18T13:19:48;11.27;;;6.40;;
22752;SDS011;11543;43.144;24.684;2022-12-18T13:22:22;10.95;;;6.43;;
22752;SDS011;11543;43.144;24.684;2022-12-18T13:24:50;11.50;;;6.57;;
22752;SDS011;11543;43.144;24.684;2022-12-18T13:40:55;12.70;;;7.18;;
22752;SDS011;11543;43.144;24.684;2022-12-18T13:43:23;12.55;;;7.47;;
22752;SDS011;11543;43.144;24.684;2022-12-18T13:46:03;12.85;;;7.20;;
22752;SDS011;11543;43.144;24.684;2022-12-18T13:49:00;12.25;;;7.18;;
22752;SDS011;11543;43.144;24.684;2022-12-18T13:51:31;13.27;;;7.35;;
22752;SDS011;11543;43.144;24.684;2022-12-18T13:54:00;13.63;;;7.78;;
22752;SDS011;11543;43.144;24.684;2022-12-18T13:56:28;11.38;;;6.82;;
22752;SDS011;11543;43.144;24.684;2022-12-18T14:01:33;15.93;;;7.35;;
22752;SDS011;11543;43.144;24.684;2022-12-18T14:04:20;11.50;;;6.70;;
22752;SDS011;11543;43.144;24.684;2022-12-18T14:06:45;14.50;;;6.88;;
22752;SDS011;11543;43.144;24.684;2022-12-18T14:09:15;11.25;;;6.63;;
22752;SDS011;11543;43.144;24.684;2022-12-18T14:11:46;12.57;;;7.05;;
22752;SDS011;11543;43.144;24.684;2022-12-18T14:14:16;10.80;;;5.97;;
22752;SDS011;11543;43.144;24.684;2022-12-18T14:16:43;12.35;;;7.05;;
22752;SDS011;11543;43.144;24.684;2022-12-18T14:19:15;11.05;;;6.68;;
22752;SDS011;11543;43.144;24.684;2022-12-18T14:21:49;13.73;;;7.65;;
22752;SDS011;11543;43.144;24.684;2022-12-18T14:24:16;11.23;;;7.07;;
22752;SDS011;11543;43.144;24.684;2022-12-18T14:26:47;14.98;;;8.13;;
22752;SDS011;11543;43.144;24.684;2022-12-18T14:29:18;11.95;;;7.05;;
22752;SDS011;11543;43.144;24.684;2022-12-18T14:32:03;13.57;;;7.90;;
22752;SDS011;11543;43.144;24.684;2022-12-18T14:34:41;14.60;;;8.10;;
22752;SDS011;11543;43.144;24.684;2022-12-18T14:37:09;13.05;;;7.60;;
22752;SDS011;11543;43.144;24.684;2022-12-18T14:39:36;13.60;;;7.07;;
22752;SDS011;11543;43.144;24.684;2022-12-18T14:42:02;12.30;;;7.20;;
22752;SDS011;11543;43.144;24.684;2022-12-18T14:44:27;11.70;;;7.00;;
22752;SDS011;11543;43.144;24.684;2022-12-18T14:46:53;13.05;;;7.20;;
22752;SDS011;11543;43.144;24.684;2022-12-18T14:49:26;12.48;;;7.18;;
22752;SDS011;11543;43.144;24.684;2022-12-18T14:51:59;12.32;;;7.20;;
22752;SDS011;11543;43.144;24.684;2022-12-18T14:54:30;11.90;;;6.88;;
22752;SDS011;11543;43.144;24.684;2022-12-18T15:00:03;11.85;;;7.00;;
22752;SDS011;11543;43.144;24.684;2022-12-18T15:02:31;13.02;;;7.35;;
22752;SDS011;11543;43.144;24.684;2022-12-18T15:05:03;12.15;;;6.22;;
22752;SDS011;11543;43.144;24.684;2022-12-18T15:07:51;12.38;;;7.03;;
22752;SDS011;11543;43.144;24.684;2022-12-18T15:10:19;12.27;;;7.28;;
22752;SDS011;11543;43.144;24.684;2022-12-18T15:18:01;13.50;;;7.75;;
22752;SDS011;11543;43.144;24.684;2022-12-18T15:20:40;13.13;;;7.70;;
22752;SDS011;11543;43.144;24.684;2022-12-18T15:23:14;13.10;;;7.68;;
22752;SDS011;11543;43.144;24.684;2022-12-18T15:25:56;12.70;;;7.38;;
22752;SDS011;11543;43.144;24.684;2022-12-18T15:28:39;12.02;;;7.30;;
22752;SDS011;11543;43.144;24.684;2022-12-18T15:33:44;14.20;;;8.20;;
22752;SDS011;11543;43.144;24.684;2022-12-18T15:36:25;13.52;;;7.38;;
22752;SDS011;11543;43.144;24.684;2022-12-18T15:38:52;15.15;;;9.50;;
22752;SDS011;11543;43.144;24.684;2022-12-18T15:41:20;14.15;;;8.18;;
22752;SDS011;11543;43.144;24.684;2022-12-18T15:43:47;12.27;;;7.30;;
22752;SDS011;11543;43.144;24.684;2022-12-18T15:48:48;13.50;;;7.57;;
22752;SDS011;11543;43.144;24.684;2022-12-18T15:51:20;12.95;;;8.23;;
22752;SDS011;11543;43.144;24.684;2022-12-18T15:53:50;14.52;;;8.18;;
22752;SDS011;11543;43.144;24.684;2022-12-18T15:56:19;16.98;;;8.70;;
22752;SDS011;11543;43.144;24.684;2022-12-18T15:59:10;16.30;;;8.75;;
22752;SDS011;11543;43.144;24.684;2022-12-18T16:01:37;15.85;;;9.10;;
22752;SDS011;11543;43.144;24.684;2022-12-18T16:04:03;18.55;;;11.77;;
22752;SDS011;11543;43.144;24.684;2022-12-18T16:06:29;19.52;;;11.75;;
22752;SDS011;11543;43.144;24.684;2022-12-18T16:08:55;16.20;;;10.00;;
22752;SDS011;11543;43.144;24.684;2022-12-18T16:11:22;31.70;;;18.75;;
22752;SDS011;11543;43.144;24.684;2022-12-18T16:17:02;14.95;;;8.35;;
22752;SDS011;11543;43.144;24.684;2022-12-18T16:19:33;14.13;;;8.30;;
22752;SDS011;11543;43.144;24.684;2022-12-18T16:21:59;14.30;;;8.18;;
22752;SDS011;11543;43.144;24.684;2022-12-18T16:24:26;15.88;;;8.95;;
22752;SDS011;11543;43.144;24.684;2022-12-18T16:26:56;16.17;;;9.38;;
22752;SDS011;11543;43.144;24.684;2022-12-18T16:29:23;17.17;;;10.10;;
22752;SDS011;11543;43.144;24.684;2022-12-18T16:31:55;17.65;;;10.05;;
22752;SDS011;11543;43.144;24.684;2022-12-18T16:34:23;17.45;;;9.82;;
22752;SDS011;11543;43.144;24.684;2022-12-18T16:36:52;16.23;;;10.23;;
22752;SDS011;11543;43.144;24.684;2022-12-18T16:39:19;14.50;;;8.60;;
22752;SDS011;11543;43.144;24.684;2022-12-18T16:41:46;16.63;;;9.30;;
22752;SDS011;11543;43.144;24.684;2022-12-18T16:44:14;15.65;;;8.50;;
22752;SDS011;11543;43.144;24.684;2022-12-18T16:46:39;16.50;;;8.85;;
22752;SDS011;11543;43.144;24.684;2022-12-18T16:49:08;15.93;;;9.30;;
22752;SDS011;11543;43.144;24.684;2022-12-18T16:51:33;15.73;;;9.43;;
22752;SDS011;11543;43.144;24.684;2022-12-18T16:53:59;17.88;;;9.23;;